sensor_id;sensor_type;location;lat;lon;timestamp;P1;durP1;ratioP1;P2;durP2;ratioP2
74632;SDS011;63139;52.018;8.552;2023-09-19T00:00:39;4.45;;;3.00;;
74632;SDS011;63139;52.018;8.552;2023-09-19T00:03:08;5.00;;;2.78;;
74632;SDS011;63139;52.018;8.552;2023-09-19T00:05:36;7.78;;;3.45;;
74632;SDS011;63139;52.018;8.552;2023-09-19T00:08:05;7.97;;;3.90;;
74632;SDS011;63139;52.018;8.552;2023-09-19T00:10:34;5.03;;;3.38;;
74632;SDS011;63139;52.018;8.552;2023-09-19T00:13:02;6.78;;;3.63;;
74632;SDS011;63139;52.018;8.552;2023-09-19T00:15:36;4.63;;;3.30;;
74632;SDS011;63139;52.018;8.552;2023-09-19T00:18:06;7.70;;;3.70;;
74632;SDS011;63139;52.018;8.552;2023-09-19T00:20:35;7.70;;;3.55;;
74632;SDS011;63139;52.018;8.552;2023-09-19T00:23:05;7.82;;;3.40;;
74632;SDS011;63139;52.018;8.552;2023-09-19T00:25:35;8.65;;;3.80;;
74632;SDS011;63139;52.018;8.552;2023-09-19T00:28:04;6.43;;;3.47;;
74632;SDS011;63139;52.018;8.552;2023-09-19T00:30:33;4.90;;;3.08;;
74632;SDS011;63139;52.018;8.552;2023-09-19T00:33:02;4.97;;;3.17;;
74632;SDS011;63139;52.018;8.552;2023-09-19T00:35:34;5.05;;;3.00;;
74632;SDS011;63139;52.018;8.552;2023-09-19T00:38:03;5.20;;;3.10;;
74632;SDS011;63139;52.018;8.552;2023-09-19T00:40:33;5.65;;;2.65;;
74632;SDS011;63139;52.018;8.552;2023-09-19T00:43:02;6.32;;;2.80;;
74632;SDS011;63139;52.018;8.552;2023-09-19T00:45:30;6.78;;;3.25;;
74632;SDS011;63139;52.018;8.552;2023-09-19T00:47:59;4.50;;;2.72;;
74632;SDS011;63139;52.018;8.552;2023-09-19T00:50:40;5.80;;;2.90;;
74632;SDS011;63139;52.018;8.552;2023-09-19T00:53:10;6.90;;;2.97;;
74632;SDS011;63139;52.018;8.552;2023-09-19T00:55:44;8.25;;;3.00;;
74632;SDS011;63139;52.018;8.552;2023-09-19T00:58:13;5.93;;;3.10;;
74632;SDS011;63139;52.018;8.552;2023-09-19T01:00:41;6.03;;;3.25;;
74632;SDS011;63139;52.018;8.552;2023-09-19T01:03:11;6.20;;;2.92;;
74632;SDS011;63139;52.018;8.552;2023-09-19T01:05:41;3.97;;;2.65;;
74632;SDS011;63139;52.018;8.552;2023-09-19T01:08:10;4.43;;;2.78;;
74632;SDS011;63139;52.018;8.552;2023-09-19T01:10:39;8.00;;;3.38;;
74632;SDS011;63139;52.018;8.552;2023-09-19T01:13:21;7.30;;;3.80;;
74632;SDS011;63139;52.018;8.552;2023-09-19T01:15:59;9.25;;;3.70;;
74632;SDS011;63139;52.018;8.552;2023-09-19T01:18:36;5.97;;;3.90;;
74632;SDS011;63139;52.018;8.552;2023-09-19T01:21:18;7.95;;;4.10;;
74632;SDS011;63139;52.018;8.552;2023-09-19T01:27:06;14.23;;;5.15;;
74632;SDS011;63139;52.018;8.552;2023-09-19T01:30:01;10.57;;;4.97;;
74632;SDS011;63139;52.018;8.552;2023-09-19T01:32:34;7.25;;;3.88;;
74632;SDS011;63139;52.018;8.552;2023-09-19T01:35:04;7.00;;;3.63;;
74632;SDS011;63139;52.018;8.552;2023-09-19T01:37:33;7.38;;;4.07;;
74632;SDS011;63139;52.018;8.552;2023-09-19T01:40:02;5.43;;;3.38;;
74632;SDS011;63139;52.018;8.552;2023-09-19T01:42:43;11.02;;;4.28;;
74632;SDS011;63139;52.018;8.552;2023-09-19T01:45:24;5.82;;;3.58;;
74632;SDS011;63139;52.018;8.552;2023-09-19T01:48:03;7.88;;;3.95;;
74632;SDS011;63139;52.018;8.552;2023-09-19T01:50:42;9.88;;;4.18;;
74632;SDS011;63139;52.018;8.552;2023-09-19T01:53:15;9.15;;;4.30;;
74632;SDS011;63139;52.018;8.552;2023-09-19T01:55:51;5.82;;;3.97;;
74632;SDS011;63139;52.018;8.552;2023-09-19T01:58:20;8.85;;;4.03;;
74632;SDS011;63139;52.018;8.552;2023-09-19T02:00:56;9.00;;;4.45;;
74632;SDS011;63139;52.018;8.552;2023-09-19T02:03:27;5.95;;;3.80;;
74632;SDS011;63139;52.018;8.552;2023-09-19T02:05:56;6.75;;;3.95;;
74632;SDS011;63139;52.018;8.552;2023-09-19T02:08:24;6.78;;;4.15;;
74632;SDS011;63139;52.018;8.552;2023-09-19T02:10:52;6.70;;;4.10;;
74632;SDS011;63139;52.018;8.552;2023-09-19T02:13:20;6.68;;;3.88;;
74632;SDS011;63139;52.018;8.552;2023-09-19T02:15:51;6.32;;;3.40;;
74632;SDS011;63139;52.018;8.552;2023-09-19T02:18:20;10.95;;;3.80;;
74632;SDS011;63139;52.018;8.552;2023-09-19T02:20:48;7.88;;;3.75;;
74632;SDS011;63139;52.018;8.552;2023-09-19T02:23:17;8.77;;;3.85;;
74632;SDS011;63139;52.018;8.552;2023-09-19T02:25:51;6.70;;;3.33;;
74632;SDS011;63139;52.018;8.552;2023-09-19T02:28:20;8.15;;;3.20;;
74632;SDS011;63139;52.018;8.552;2023-09-19T02:30:50;12.38;;;2.90;;
74632;SDS011;63139;52.018;8.552;2023-09-19T02:33:17;6.47;;;3.13;;
74632;SDS011;63139;52.018;8.552;2023-09-19T02:35:47;5.30;;;2.83;;
74632;SDS011;63139;52.018;8.552;2023-09-19T02:38:15;6.90;;;2.75;;
74632;SDS011;63139;52.018;8.552;2023-09-19T02:40:51;8.23;;;2.80;;
74632;SDS011;63139;52.018;8.552;2023-09-19T02:43:19;6.38;;;2.55;;
74632;SDS011;63139;52.018;8.552;2023-09-19T02:45:47;4.95;;;2.60;;
74632;SDS011;63139;52.018;8.552;2023-09-19T02:48:16;5.80;;;2.95;;
74632;SDS011;63139;52.018;8.552;2023-09-19T02:50:48;7.25;;;2.53;;
74632;SDS011;63139;52.018;8.552;2023-09-19T02:53:17;7.47;;;2.65;;
74632;SDS011;63139;52.018;8.552;2023-09-19T02:55:46;7.53;;;2.70;;
74632;SDS011;63139;52.018;8.552;2023-09-19T02:58:15;5.93;;;2.13;;
74632;SDS011;63139;52.018;8.552;2023-09-19T03:00:45;6.70;;;2.50;;
74632;SDS011;63139;52.018;8.552;2023-09-19T03:03:15;7.10;;;2.63;;
74632;SDS011;63139;52.018;8.552;2023-09-19T03:05:43;7.82;;;2.60;;
74632;SDS011;63139;52.018;8.552;2023-09-19T03:08:16;11.88;;;3.05;;
74632;SDS011;63139;52.018;8.552;2023-09-19T03:10:47;6.18;;;2.53;;
74632;SDS011;63139;52.018;8.552;2023-09-19T03:13:15;8.90;;;2.63;;
74632;SDS011;63139;52.018;8.552;2023-09-19T03:15:44;10.20;;;3.25;;
74632;SDS011;63139;52.018;8.552;2023-09-19T03:18:14;9.05;;;3.00;;
74632;SDS011;63139;52.018;8.552;2023-09-19T03:20:42;8.05;;;3.00;;
74632;SDS011;63139;52.018;8.552;2023-09-19T03:23:11;9.82;;;3.00;;
74632;SDS011;63139;52.018;8.552;2023-09-19T03:25:41;7.40;;;2.63;;
74632;SDS011;63139;52.018;8.552;2023-09-19T03:28:09;10.75;;;2.88;;
74632;SDS011;63139;52.018;8.552;2023-09-19T03:30:37;9.15;;;3.00;;
74632;SDS011;63139;52.018;8.552;2023-09-19T03:33:06;6.97;;;2.72;;
74632;SDS011;63139;52.018;8.552;2023-09-19T03:35:34;7.63;;;3.22;;
74632;SDS011;63139;52.018;8.552;2023-09-19T03:38:03;8.25;;;2.72;;
74632;SDS011;63139;52.018;8.552;2023-09-19T03:40:32;7.68;;;3.05;;
74632;SDS011;63139;52.018;8.552;2023-09-19T03:43:02;7.90;;;2.70;;
74632;SDS011;63139;52.018;8.552;2023-09-19T03:45:30;8.93;;;2.85;;
74632;SDS011;63139;52.018;8.552;2023-09-19T03:47:58;8.75;;;2.70;;
74632;SDS011;63139;52.018;8.552;2023-09-19T03:50:26;10.73;;;2.60;;
74632;SDS011;63139;52.018;8.552;2023-09-19T03:52:56;10.27;;;2.60;;
74632;SDS011;63139;52.018;8.552;2023-09-19T03:55:24;7.03;;;2.45;;
74632;SDS011;63139;52.018;8.552;2023-09-19T03:57:53;5.30;;;1.80;;
74632;SDS011;63139;52.018;8.552;2023-09-19T04:00:22;11.02;;;2.60;;
74632;SDS011;63139;52.018;8.552;2023-09-19T04:02:53;13.82;;;2.67;;
74632;SDS011;63139;52.018;8.552;2023-09-19T04:05:23;6.32;;;2.22;;
74632;SDS011;63139;52.018;8.552;2023-09-19T04:07:51;7.07;;;2.30;;
74632;SDS011;63139;52.018;8.552;2023-09-19T04:10:20;11.55;;;2.35;;
74632;SDS011;63139;52.018;8.552;2023-09-19T04:12:51;9.00;;;2.47;;
74632;SDS011;63139;52.018;8.552;2023-09-19T04:15:22;8.40;;;2.65;;
74632;SDS011;63139;52.018;8.552;2023-09-19T04:17:54;8.80;;;2.65;;
74632;SDS011;63139;52.018;8.552;2023-09-19T04:20:22;7.32;;;2.53;;
74632;SDS011;63139;52.018;8.552;2023-09-19T04:22:50;6.53;;;2.30;;
74632;SDS011;63139;52.018;8.552;2023-09-19T04:25:19;7.18;;;2.03;;
74632;SDS011;63139;52.018;8.552;2023-09-19T04:27:47;8.43;;;2.47;;
74632;SDS011;63139;52.018;8.552;2023-09-19T04:30:16;7.95;;;2.42;;
74632;SDS011;63139;52.018;8.552;2023-09-19T04:32:45;6.60;;;2.20;;
74632;SDS011;63139;52.018;8.552;2023-09-19T04:35:17;4.75;;;2.10;;
74632;SDS011;63139;52.018;8.552;2023-09-19T04:37:45;7.90;;;2.47;;
74632;SDS011;63139;52.018;8.552;2023-09-19T04:40:17;8.48;;;2.00;;
74632;SDS011;63139;52.018;8.552;2023-09-19T04:42:45;6.13;;;2.05;;
74632;SDS011;63139;52.018;8.552;2023-09-19T04:45:23;7.65;;;2.80;;
74632;SDS011;63139;52.018;8.552;2023-09-19T04:47:54;9.85;;;2.60;;
74632;SDS011;63139;52.018;8.552;2023-09-19T04:50:23;6.20;;;2.10;;
74632;SDS011;63139;52.018;8.552;2023-09-19T04:52:54;6.75;;;2.25;;
74632;SDS011;63139;52.018;8.552;2023-09-19T04:55:22;11.18;;;2.95;;
74632;SDS011;63139;52.018;8.552;2023-09-19T04:57:50;9.88;;;2.25;;
74632;SDS011;63139;52.018;8.552;2023-09-19T05:00:19;10.18;;;2.45;;
74632;SDS011;63139;52.018;8.552;2023-09-19T05:02:50;8.55;;;2.72;;
74632;SDS011;63139;52.018;8.552;2023-09-19T05:05:20;8.77;;;2.65;;
74632;SDS011;63139;52.018;8.552;2023-09-19T05:07:49;6.07;;;2.20;;
74632;SDS011;63139;52.018;8.552;2023-09-19T05:10:17;6.47;;;1.80;;
74632;SDS011;63139;52.018;8.552;2023-09-19T05:12:46;7.18;;;2.08;;
74632;SDS011;63139;52.018;8.552;2023-09-19T05:15:15;7.47;;;2.13;;
74632;SDS011;63139;52.018;8.552;2023-09-19T05:17:47;8.48;;;2.20;;
74632;SDS011;63139;52.018;8.552;2023-09-19T05:20:22;7.20;;;2.10;;
74632;SDS011;63139;52.018;8.552;2023-09-19T05:23:00;9.02;;;2.30;;
74632;SDS011;63139;52.018;8.552;2023-09-19T05:25:29;11.27;;;2.25;;
74632;SDS011;63139;52.018;8.552;2023-09-19T05:27:59;9.82;;;2.38;;
74632;SDS011;63139;52.018;8.552;2023-09-19T05:30:30;8.27;;;2.00;;
74632;SDS011;63139;52.018;8.552;2023-09-19T05:32:59;7.05;;;2.00;;
74632;SDS011;63139;52.018;8.552;2023-09-19T05:35:29;8.90;;;2.30;;
74632;SDS011;63139;52.018;8.552;2023-09-19T05:37:58;9.02;;;2.55;;
74632;SDS011;63139;52.018;8.552;2023-09-19T05:40:26;9.48;;;3.30;;
74632;SDS011;63139;52.018;8.552;2023-09-19T05:42:54;7.95;;;2.42;;
74632;SDS011;63139;52.018;8.552;2023-09-19T05:45:22;9.95;;;2.63;;
74632;SDS011;63139;52.018;8.552;2023-09-19T05:47:51;10.00;;;2.30;;
74632;SDS011;63139;52.018;8.552;2023-09-19T05:50:22;12.70;;;2.28;;
74632;SDS011;63139;52.018;8.552;2023-09-19T05:52:53;8.23;;;2.08;;
74632;SDS011;63139;52.018;8.552;2023-09-19T05:55:22;9.70;;;2.05;;
74632;SDS011;63139;52.018;8.552;2023-09-19T05:57:51;11.55;;;2.08;;
74632;SDS011;63139;52.018;8.552;2023-09-19T06:00:20;6.55;;;2.05;;
74632;SDS011;63139;52.018;8.552;2023-09-19T06:02:50;8.82;;;2.47;;
74632;SDS011;63139;52.018;8.552;2023-09-19T06:05:21;9.50;;;2.13;;
74632;SDS011;63139;52.018;8.552;2023-09-19T06:07:49;7.70;;;2.67;;
74632;SDS011;63139;52.018;8.552;2023-09-19T06:10:20;8.43;;;2.30;;
74632;SDS011;63139;52.018;8.552;2023-09-19T06:12:50;8.27;;;2.28;;
74632;SDS011;63139;52.018;8.552;2023-09-19T06:15:18;12.75;;;2.42;;
74632;SDS011;63139;52.018;8.552;2023-09-19T06:17:47;9.88;;;2.33;;
74632;SDS011;63139;52.018;8.552;2023-09-19T06:20:16;6.78;;;2.42;;
74632;SDS011;63139;52.018;8.552;2023-09-19T06:22:46;9.88;;;2.13;;
74632;SDS011;63139;52.018;8.552;2023-09-19T06:25:15;9.95;;;2.20;;
74632;SDS011;63139;52.018;8.552;2023-09-19T06:27:47;5.85;;;2.03;;
74632;SDS011;63139;52.018;8.552;2023-09-19T06:30:19;8.75;;;1.70;;
74632;SDS011;63139;52.018;8.552;2023-09-19T06:32:48;5.97;;;2.00;;
74632;SDS011;63139;52.018;8.552;2023-09-19T06:35:16;5.85;;;1.70;;
74632;SDS011;63139;52.018;8.552;2023-09-19T06:37:44;8.20;;;2.10;;
74632;SDS011;63139;52.018;8.552;2023-09-19T06:40:13;9.82;;;2.20;;
74632;SDS011;63139;52.018;8.552;2023-09-19T06:42:43;6.65;;;2.30;;
74632;SDS011;63139;52.018;8.552;2023-09-19T06:45:14;9.00;;;2.53;;
74632;SDS011;63139;52.018;8.552;2023-09-19T06:47:45;6.47;;;2.08;;
74632;SDS011;63139;52.018;8.552;2023-09-19T06:50:17;9.52;;;2.53;;
74632;SDS011;63139;52.018;8.552;2023-09-19T06:52:46;6.75;;;2.13;;
74632;SDS011;63139;52.018;8.552;2023-09-19T06:55:16;9.55;;;2.13;;
74632;SDS011;63139;52.018;8.552;2023-09-19T06:57:46;8.57;;;2.22;;
74632;SDS011;63139;52.018;8.552;2023-09-19T07:00:16;9.10;;;2.17;;
74632;SDS011;63139;52.018;8.552;2023-09-19T07:02:54;7.78;;;2.25;;
74632;SDS011;63139;52.018;8.552;2023-09-19T07:05:23;9.70;;;1.95;;
74632;SDS011;63139;52.018;8.552;2023-09-19T07:07:51;10.50;;;2.47;;
74632;SDS011;63139;52.018;8.552;2023-09-19T07:10:19;8.02;;;2.15;;
74632;SDS011;63139;52.018;8.552;2023-09-19T07:12:54;8.20;;;2.20;;
74632;SDS011;63139;52.018;8.552;2023-09-19T07:15:25;10.13;;;2.30;;
74632;SDS011;63139;52.018;8.552;2023-09-19T07:17:53;11.35;;;2.03;;
74632;SDS011;63139;52.018;8.552;2023-09-19T07:20:23;9.13;;;2.10;;
74632;SDS011;63139;52.018;8.552;2023-09-19T07:22:53;7.43;;;2.20;;
74632;SDS011;63139;52.018;8.552;2023-09-19T07:25:22;9.45;;;2.47;;
74632;SDS011;63139;52.018;8.552;2023-09-19T07:27:51;10.48;;;2.10;;
74632;SDS011;63139;52.018;8.552;2023-09-19T07:30:19;8.75;;;2.05;;
74632;SDS011;63139;52.018;8.552;2023-09-19T07:32:48;11.35;;;2.60;;
74632;SDS011;63139;52.018;8.552;2023-09-19T07:35:16;10.65;;;2.47;;
74632;SDS011;63139;52.018;8.552;2023-09-19T07:37:46;11.25;;;2.30;;
74632;SDS011;63139;52.018;8.552;2023-09-19T07:40:17;9.18;;;2.30;;
74632;SDS011;63139;52.018;8.552;2023-09-19T07:42:47;9.95;;;2.00;;
74632;SDS011;63139;52.018;8.552;2023-09-19T07:45:17;7.75;;;2.20;;
74632;SDS011;63139;52.018;8.552;2023-09-19T07:47:45;8.15;;;2.13;;
74632;SDS011;63139;52.018;8.552;2023-09-19T07:50:15;7.70;;;2.47;;
74632;SDS011;63139;52.018;8.552;2023-09-19T07:52:45;5.97;;;2.08;;
74632;SDS011;63139;52.018;8.552;2023-09-19T07:55:14;7.28;;;2.15;;
74632;SDS011;63139;52.018;8.552;2023-09-19T07:57:44;7.88;;;1.98;;
74632;SDS011;63139;52.018;8.552;2023-09-19T08:00:12;7.20;;;2.03;;
74632;SDS011;63139;52.018;8.552;2023-09-19T08:02:41;9.95;;;1.90;;
74632;SDS011;63139;52.018;8.552;2023-09-19T08:05:12;3.78;;;1.75;;
74632;SDS011;63139;52.018;8.552;2023-09-19T08:07:44;7.45;;;1.92;;
74632;SDS011;63139;52.018;8.552;2023-09-19T08:10:15;6.38;;;1.80;;
74632;SDS011;63139;52.018;8.552;2023-09-19T08:12:47;12.07;;;2.45;;
74632;SDS011;63139;52.018;8.552;2023-09-19T08:15:22;11.18;;;2.28;;
74632;SDS011;63139;52.018;8.552;2023-09-19T08:17:50;7.22;;;2.03;;
74632;SDS011;63139;52.018;8.552;2023-09-19T08:20:19;7.93;;;2.10;;
74632;SDS011;63139;52.018;8.552;2023-09-19T08:22:50;8.07;;;2.28;;
74632;SDS011;63139;52.018;8.552;2023-09-19T08:25:20;10.82;;;2.10;;
74632;SDS011;63139;52.018;8.552;2023-09-19T08:27:49;7.60;;;2.00;;
74632;SDS011;63139;52.018;8.552;2023-09-19T08:30:18;17.15;;;2.83;;
74632;SDS011;63139;52.018;8.552;2023-09-19T08:32:51;7.65;;;1.92;;
74632;SDS011;63139;52.018;8.552;2023-09-19T08:35:24;5.68;;;2.15;;
74632;SDS011;63139;52.018;8.552;2023-09-19T08:37:54;7.70;;;2.03;;
74632;SDS011;63139;52.018;8.552;2023-09-19T08:40:23;11.68;;;2.42;;
74632;SDS011;63139;52.018;8.552;2023-09-19T08:42:57;7.35;;;2.10;;
74632;SDS011;63139;52.018;8.552;2023-09-19T08:45:25;11.32;;;2.10;;
74632;SDS011;63139;52.018;8.552;2023-09-19T08:47:56;7.40;;;1.70;;
74632;SDS011;63139;52.018;8.552;2023-09-19T08:50:36;8.77;;;2.10;;
74632;SDS011;63139;52.018;8.552;2023-09-19T08:53:12;9.32;;;2.30;;
74632;SDS011;63139;52.018;8.552;2023-09-19T08:55:49;8.50;;;2.42;;
74632;SDS011;63139;52.018;8.552;2023-09-19T08:58:20;11.50;;;2.42;;
74632;SDS011;63139;52.018;8.552;2023-09-19T09:00:54;9.23;;;2.22;;
74632;SDS011;63139;52.018;8.552;2023-09-19T09:03:29;9.38;;;2.58;;
74632;SDS011;63139;52.018;8.552;2023-09-19T09:06:01;5.32;;;2.15;;
74632;SDS011;63139;52.018;8.552;2023-09-19T09:08:31;10.95;;;2.60;;
74632;SDS011;63139;52.018;8.552;2023-09-19T09:11:00;5.78;;;1.90;;
74632;SDS011;63139;52.018;8.552;2023-09-19T09:13:29;7.53;;;2.50;;
74632;SDS011;63139;52.018;8.552;2023-09-19T09:15:57;9.48;;;2.30;;
74632;SDS011;63139;52.018;8.552;2023-09-19T09:18:26;12.27;;;3.00;;
74632;SDS011;63139;52.018;8.552;2023-09-19T09:20:56;6.63;;;2.17;;
74632;SDS011;63139;52.018;8.552;2023-09-19T09:23:25;9.15;;;2.50;;
74632;SDS011;63139;52.018;8.552;2023-09-19T09:25:57;9.20;;;2.22;;
74632;SDS011;63139;52.018;8.552;2023-09-19T09:28:30;6.45;;;2.47;;
74632;SDS011;63139;52.018;8.552;2023-09-19T09:31:00;6.53;;;2.15;;
74632;SDS011;63139;52.018;8.552;2023-09-19T09:33:29;8.93;;;2.70;;
74632;SDS011;63139;52.018;8.552;2023-09-19T09:35:58;7.97;;;2.30;;
74632;SDS011;63139;52.018;8.552;2023-09-19T09:38:29;7.68;;;2.58;;
74632;SDS011;63139;52.018;8.552;2023-09-19T09:41:11;10.93;;;2.25;;
74632;SDS011;63139;52.018;8.552;2023-09-19T09:43:43;7.78;;;2.40;;
74632;SDS011;63139;52.018;8.552;2023-09-19T09:46:13;8.57;;;2.47;;
74632;SDS011;63139;52.018;8.552;2023-09-19T09:49:01;7.28;;;2.42;;
74632;SDS011;63139;52.018;8.552;2023-09-19T09:51:43;6.55;;;2.25;;
74632;SDS011;63139;52.018;8.552;2023-09-19T09:54:15;8.50;;;2.65;;
74632;SDS011;63139;52.018;8.552;2023-09-19T09:56:53;10.70;;;2.40;;
74632;SDS011;63139;52.018;8.552;2023-09-19T09:59:44;8.70;;;2.50;;
74632;SDS011;63139;52.018;8.552;2023-09-19T10:02:14;7.63;;;2.13;;
74632;SDS011;63139;52.018;8.552;2023-09-19T10:04:48;12.45;;;3.08;;
74632;SDS011;63139;52.018;8.552;2023-09-19T10:07:35;8.38;;;2.30;;
74632;SDS011;63139;52.018;8.552;2023-09-19T10:10:07;10.98;;;2.75;;
74632;SDS011;63139;52.018;8.552;2023-09-19T10:12:45;11.25;;;2.50;;
74632;SDS011;63139;52.018;8.552;2023-09-19T10:15:15;10.88;;;2.75;;
74632;SDS011;63139;52.018;8.552;2023-09-19T10:17:47;9.30;;;2.45;;
74632;SDS011;63139;52.018;8.552;2023-09-19T10:20:16;5.57;;;2.03;;
74632;SDS011;63139;52.018;8.552;2023-09-19T10:23:03;6.43;;;2.15;;
74632;SDS011;63139;52.018;8.552;2023-09-19T10:25:37;6.22;;;2.08;;
74632;SDS011;63139;52.018;8.552;2023-09-19T10:28:08;5.95;;;2.35;;
74632;SDS011;63139;52.018;8.552;2023-09-19T10:30:41;8.45;;;2.38;;
74632;SDS011;63139;52.018;8.552;2023-09-19T10:33:12;12.90;;;2.90;;
74632;SDS011;63139;52.018;8.552;2023-09-19T10:35:42;6.65;;;2.15;;
74632;SDS011;63139;52.018;8.552;2023-09-19T10:38:11;8.85;;;2.22;;
74632;SDS011;63139;52.018;8.552;2023-09-19T10:40:44;9.73;;;2.47;;
74632;SDS011;63139;52.018;8.552;2023-09-19T10:43:19;4.18;;;1.90;;
74632;SDS011;63139;52.018;8.552;2023-09-19T10:45:49;11.65;;;2.88;;
74632;SDS011;63139;52.018;8.552;2023-09-19T10:48:20;6.68;;;2.50;;
74632;SDS011;63139;52.018;8.552;2023-09-19T10:50:53;10.13;;;2.50;;
74632;SDS011;63139;52.018;8.552;2023-09-19T10:53:32;7.85;;;2.00;;
74632;SDS011;63139;52.018;8.552;2023-09-19T10:56:10;7.13;;;2.50;;
74632;SDS011;63139;52.018;8.552;2023-09-19T10:58:48;5.85;;;2.05;;
74632;SDS011;63139;52.018;8.552;2023-09-19T11:01:16;9.88;;;2.80;;
74632;SDS011;63139;52.018;8.552;2023-09-19T11:03:45;7.82;;;2.45;;
74632;SDS011;63139;52.018;8.552;2023-09-19T11:06:16;5.93;;;2.13;;
74632;SDS011;63139;52.018;8.552;2023-09-19T11:08:56;10.23;;;2.50;;
74632;SDS011;63139;52.018;8.552;2023-09-19T11:11:40;8.85;;;2.08;;
74632;SDS011;63139;52.018;8.552;2023-09-19T11:20:21;5.32;;;2.03;;
74632;SDS011;63139;52.018;8.552;2023-09-19T11:23:17;7.85;;;2.08;;
74632;SDS011;63139;52.018;8.552;2023-09-19T11:25:49;9.32;;;2.47;;
74632;SDS011;63139;52.018;8.552;2023-09-19T11:28:32;6.15;;;2.22;;
74632;SDS011;63139;52.018;8.552;2023-09-19T11:40:33;6.93;;;2.17;;
74632;SDS011;63139;52.018;8.552;2023-09-19T11:46:03;5.93;;;2.05;;
74632;SDS011;63139;52.018;8.552;2023-09-19T11:48:35;8.48;;;2.28;;
74632;SDS011;63139;52.018;8.552;2023-09-19T11:51:12;10.15;;;2.72;;
74632;SDS011;63139;52.018;8.552;2023-09-19T11:53:50;9.00;;;2.38;;
74632;SDS011;63139;52.018;8.552;2023-09-19T11:56:19;5.65;;;2.00;;
74632;SDS011;63139;52.018;8.552;2023-09-19T11:58:51;8.88;;;2.28;;
74632;SDS011;63139;52.018;8.552;2023-09-19T12:01:22;9.48;;;2.45;;
74632;SDS011;63139;52.018;8.552;2023-09-19T12:03:56;11.65;;;2.28;;
74632;SDS011;63139;52.018;8.552;2023-09-19T12:06:27;10.00;;;2.25;;
74632;SDS011;63139;52.018;8.552;2023-09-19T12:08:58;5.32;;;2.30;;
74632;SDS011;63139;52.018;8.552;2023-09-19T12:11:32;6.80;;;2.45;;
74632;SDS011;63139;52.018;8.552;2023-09-19T12:14:02;5.85;;;2.20;;
74632;SDS011;63139;52.018;8.552;2023-09-19T12:16:31;5.68;;;2.20;;
74632;SDS011;63139;52.018;8.552;2023-09-19T12:21:57;3.78;;;2.00;;
74632;SDS011;63139;52.018;8.552;2023-09-19T12:24:26;5.15;;;2.03;;
74632;SDS011;63139;52.018;8.552;2023-09-19T12:27:00;4.95;;;1.90;;
74632;SDS011;63139;52.018;8.552;2023-09-19T12:29:31;6.40;;;2.08;;
74632;SDS011;63139;52.018;8.552;2023-09-19T12:32:09;7.72;;;2.47;;
74632;SDS011;63139;52.018;8.552;2023-09-19T12:34:38;7.32;;;2.47;;
74632;SDS011;63139;52.018;8.552;2023-09-19T12:37:11;8.18;;;2.30;;
74632;SDS011;63139;52.018;8.552;2023-09-19T12:39:42;7.22;;;2.40;;
74632;SDS011;63139;52.018;8.552;2023-09-19T12:42:16;8.60;;;2.25;;
74632;SDS011;63139;52.018;8.552;2023-09-19T12:44:45;4.72;;;2.28;;
74632;SDS011;63139;52.018;8.552;2023-09-19T12:47:16;9.75;;;2.65;;
74632;SDS011;63139;52.018;8.552;2023-09-19T12:50:05;4.60;;;1.90;;
74632;SDS011;63139;52.018;8.552;2023-09-19T12:52:43;6.45;;;2.10;;
74632;SDS011;63139;52.018;8.552;2023-09-19T12:55:20;8.05;;;2.20;;
74632;SDS011;63139;52.018;8.552;2023-09-19T12:57:56;8.38;;;2.33;;
74632;SDS011;63139;52.018;8.552;2023-09-19T13:00:32;6.07;;;2.15;;
74632;SDS011;63139;52.018;8.552;2023-09-19T13:03:15;5.93;;;1.83;;
74632;SDS011;63139;52.018;8.552;2023-09-19T13:05:50;7.90;;;2.40;;
74632;SDS011;63139;52.018;8.552;2023-09-19T13:08:23;8.27;;;2.38;;
74632;SDS011;63139;52.018;8.552;2023-09-19T13:11:05;5.45;;;2.22;;
74632;SDS011;63139;52.018;8.552;2023-09-19T13:13:39;4.70;;;1.83;;
74632;SDS011;63139;52.018;8.552;2023-09-19T13:16:14;6.97;;;2.07;;
74632;SDS011;63139;52.018;8.552;2023-09-19T13:18:47;7.10;;;2.08;;
74632;SDS011;63139;52.018;8.552;2023-09-19T13:21:20;3.42;;;1.85;;
74632;SDS011;63139;52.018;8.552;2023-09-19T13:24:17;5.65;;;1.60;;
74632;SDS011;63139;52.018;8.552;2023-09-19T13:26:49;5.82;;;2.05;;
74632;SDS011;63139;52.018;8.552;2023-09-19T13:29:17;6.57;;;1.83;;
74632;SDS011;63139;52.018;8.552;2023-09-19T13:31:46;7.35;;;2.15;;
74632;SDS011;63139;52.018;8.552;2023-09-19T13:34:14;4.90;;;1.90;;
74632;SDS011;63139;52.018;8.552;2023-09-19T13:36:44;4.32;;;1.73;;
74632;SDS011;63139;52.018;8.552;2023-09-19T13:39:16;5.60;;;2.15;;
74632;SDS011;63139;52.018;8.552;2023-09-19T13:41:45;5.28;;;1.65;;
74632;SDS011;63139;52.018;8.552;2023-09-19T13:44:14;7.65;;;2.30;;
74632;SDS011;63139;52.018;8.552;2023-09-19T13:46:43;4.82;;;1.65;;
74632;SDS011;63139;52.018;8.552;2023-09-19T13:49:13;5.18;;;1.95;;
74632;SDS011;63139;52.018;8.552;2023-09-19T13:51:46;5.40;;;1.95;;
74632;SDS011;63139;52.018;8.552;2023-09-19T13:54:16;6.88;;;2.00;;
74632;SDS011;63139;52.018;8.552;2023-09-19T13:56:44;4.88;;;2.03;;
74632;SDS011;63139;52.018;8.552;2023-09-19T13:59:12;6.03;;;2.00;;
74632;SDS011;63139;52.018;8.552;2023-09-19T14:01:40;5.47;;;1.80;;
74632;SDS011;63139;52.018;8.552;2023-09-19T14:04:09;5.30;;;1.88;;
74632;SDS011;63139;52.018;8.552;2023-09-19T14:06:41;5.07;;;1.90;;
74632;SDS011;63139;52.018;8.552;2023-09-19T14:09:09;5.38;;;1.70;;
74632;SDS011;63139;52.018;8.552;2023-09-19T14:11:39;6.43;;;2.08;;
74632;SDS011;63139;52.018;8.552;2023-09-19T14:14:08;4.55;;;1.80;;
74632;SDS011;63139;52.018;8.552;2023-09-19T14:16:37;4.65;;;1.67;;
74632;SDS011;63139;52.018;8.552;2023-09-19T14:19:07;3.40;;;1.60;;
74632;SDS011;63139;52.018;8.552;2023-09-19T14:21:35;6.68;;;1.80;;
74632;SDS011;63139;52.018;8.552;2023-09-19T14:24:06;4.88;;;1.80;;
74632;SDS011;63139;52.018;8.552;2023-09-19T14:26:35;3.88;;;2.00;;
74632;SDS011;63139;52.018;8.552;2023-09-19T14:29:05;3.28;;;1.52;;
74632;SDS011;63139;52.018;8.552;2023-09-19T14:31:36;6.35;;;2.05;;
74632;SDS011;63139;52.018;8.552;2023-09-19T14:34:06;5.63;;;1.75;;
74632;SDS011;63139;52.018;8.552;2023-09-19T14:36:36;3.05;;;1.60;;
74632;SDS011;63139;52.018;8.552;2023-09-19T14:39:05;2.83;;;1.60;;
74632;SDS011;63139;52.018;8.552;2023-09-19T14:41:34;4.30;;;1.85;;
74632;SDS011;63139;52.018;8.552;2023-09-19T14:44:03;6.03;;;2.00;;
74632;SDS011;63139;52.018;8.552;2023-09-19T14:46:33;9.35;;;2.20;;
74632;SDS011;63139;52.018;8.552;2023-09-19T14:49:03;4.72;;;1.80;;
74632;SDS011;63139;52.018;8.552;2023-09-19T14:51:32;7.03;;;1.90;;
74632;SDS011;63139;52.018;8.552;2023-09-19T14:54:02;4.38;;;1.90;;
74632;SDS011;63139;52.018;8.552;2023-09-19T14:56:30;5.70;;;1.90;;
74632;SDS011;63139;52.018;8.552;2023-09-19T14:58:58;3.88;;;1.70;;
74632;SDS011;63139;52.018;8.552;2023-09-19T15:01:28;4.00;;;1.55;;
74632;SDS011;63139;52.018;8.552;2023-09-19T15:03:56;6.25;;;1.88;;
74632;SDS011;63139;52.018;8.552;2023-09-19T15:06:28;5.57;;;1.95;;
74632;SDS011;63139;52.018;8.552;2023-09-19T15:08:56;4.90;;;1.75;;
74632;SDS011;63139;52.018;8.552;2023-09-19T15:11:24;3.85;;;1.63;;
74632;SDS011;63139;52.018;8.552;2023-09-19T15:13:54;5.03;;;1.80;;
74632;SDS011;63139;52.018;8.552;2023-09-19T15:16:23;3.92;;;1.67;;
74632;SDS011;63139;52.018;8.552;2023-09-19T15:18:52;5.45;;;1.80;;
74632;SDS011;63139;52.018;8.552;2023-09-19T15:21:21;3.53;;;1.80;;
74632;SDS011;63139;52.018;8.552;2023-09-19T15:23:50;5.00;;;2.05;;
74632;SDS011;63139;52.018;8.552;2023-09-19T15:26:18;5.07;;;1.83;;
74632;SDS011;63139;52.018;8.552;2023-09-19T15:28:48;4.28;;;1.80;;
74632;SDS011;63139;52.018;8.552;2023-09-19T15:31:16;6.38;;;2.03;;
74632;SDS011;63139;52.018;8.552;2023-09-19T15:33:45;5.47;;;2.03;;